Time;durP1;ratioP1;P1;durP2;ratioP2;P2;SDS_P1;SDS_P2;PMS_P1;PMS_P2;Temp;Humidity;BMP_temperature;BMP_pressure;BME280_temperature;BME280_humidity;BME280_pressure;Samples;Min_cycle;Max_cycle;Signal;HPM_P1;HPM_P2
2023/03/30 00:01:56;;;;;;;0.90;0.90;;;;;;;3.75;50.05;100900.69;5056032;28;20581;-75
2023/03/30 00:04:26;;;;;;;1.17;1.17;;;;;;;3.81;51.04;100906.19;5069875;28;20260;-75
2023/03/30 00:06:53;;;;;;;0.90;0.90;;;;;;;3.77;50.44;100904.25;5070576;28;20257;-76
2023/03/30 00:09:21;;;;;;;1.10;1.10;;;;;;;3.67;50.90;100904.53;5070422;28;20203;-74
2023/03/30 00:11:48;;;;;;;1.10;1.10;;;;;;;3.55;50.96;100885.91;5070097;28;20210;-72
2023/03/30 00:14:16;;;;;;;1.60;1.60;;;;;;;3.65;51.35;100909.56;4986807;28;20667;-75
2023/03/30 00:16:43;;;;;;;0.97;0.97;;;;;;;3.53;51.06;100913.13;5069609;28;20210;-74
2023/03/30 00:19:10;;;;;;;0.90;0.90;;;;;;;3.54;51.60;100889.25;5070750;28;20198;-74
2023/03/30 00:21:38;;;;;;;1.20;1.20;;;;;;;3.69;51.51;100911.50;5054257;28;20199;-75
2023/03/30 00:24:05;;;;;;;0.90;0.90;;;;;;;3.57;51.48;100920.22;5070267;28;20217;-75
2023/03/30 00:26:32;;;;;;;1.00;1.00;;;;;;;3.64;51.58;100910.34;5070368;28;20588;-75
2023/03/30 00:28:58;;;;;;;1.00;1.00;;;;;;;3.67;51.56;100912.22;5071490;28;20198;-74
2023/03/30 00:31:25;;;;;;;1.00;1.00;;;;;;;3.44;52.42;100873.38;5074368;28;20206;-75
2023/03/30 00:33:52;;;;;;;1.10;1.10;;;;;;;3.53;51.61;100892.63;5073667;28;20581;-75
2023/03/30 00:36:19;;;;;;;0.80;0.80;;;;;;;3.53;51.87;100901.22;5074166;28;20202;-75
2023/03/30 00:38:48;;;;;;;5.83;2.60;;;;;;;3.39;52.37;100885.03;5074129;28;20201;-75
2023/03/30 00:41:15;;;;;;;0.97;0.97;;;;;;;3.57;52.24;100899.69;5074147;28;20230;-75
2023/03/30 00:43:56;;;;;;;0.90;0.90;;;;;;;3.70;52.06;100894.44;5074097;28;20198;-74
2023/03/30 00:46:24;;;;;;;0.90;0.90;;;;;;;3.39;52.25;100879.91;5073919;28;20202;-73
2023/03/30 00:48:51;;;;;;;1.20;1.20;;;;;;;3.42;53.30;100903.13;5073682;28;20323;-72
2023/03/30 00:51:19;;;;;;;0.80;0.80;;;;;;;3.50;52.93;100914.72;5073470;28;20207;-74
2023/03/30 00:53:50;;;;;;;1.00;1.00;;;;;;;3.42;52.84;100915.97;5073403;28;20203;-75
2023/03/30 00:56:21;;;;;;;0.93;0.93;;;;;;;3.35;53.27;100898.47;5073779;28;20221;-75
2023/03/30 00:58:50;;;;;;;1.10;1.10;;;;;;;3.30;53.02;100922.97;5044295;28;20253;-75
2023/03/30 01:01:24;;;;;;;0.87;0.87;;;;;;;3.29;53.36;100926.31;5093796;28;20190;-74
2023/03/30 01:03:52;;;;;;;1.20;1.20;;;;;;;3.24;53.01;100921.75;5093329;28;20209;-74
2023/03/30 01:06:23;;;;;;;1.10;1.10;;;;;;;3.40;53.35;100917.56;5093520;28;20203;-75
2023/03/30 01:08:52;;;;;;;1.40;1.40;;;;;;;3.48;53.09;100912.88;5093729;28;20259;-75
2023/03/30 01:11:20;;;;;;;0.90;0.90;;;;;;;3.44;53.40;100916.06;5093619;28;20682;-75
2023/03/30 01:13:49;;;;;;;0.90;0.90;;;;;;;3.52;53.56;100912.25;5093223;28;20267;-74
2023/03/30 01:16:26;;;;;;;1.10;1.10;;;;;;;3.44;53.67;100914.38;5093098;28;20665;-74
2023/03/30 01:19:02;;;;;;;1.10;1.10;;;;;;;3.26;54.25;100895.41;5057835;28;20200;-74
2023/03/30 01:22:07;;;;;;;1.20;1.20;;;;;;;3.24;54.45;100919.19;5093439;28;20194;-75
2023/03/30 01:25:19;;;;;;;1.00;1.00;;;;;;;3.15;54.89;100924.66;5039728;28;20202;-75
2023/03/30 01:28:21;;;;;;;0.97;0.97;;;;;;;3.06;54.43;100916.44;5027050;28;20224;-75
2023/03/30 01:31:12;;;;;;;0.97;0.97;;;;;;;2.84;55.30;100905.72;4914656;29;20243;-77
2023/03/30 01:34:16;;;;;;;1.67;1.67;;;;;;;2.89;55.96;100917.16;4858302;29;20218;-76
2023/03/30 01:37:24;;;;;;;1.00;1.00;;;;;;;2.81;56.30;100916.69;4803489;29;20204;-74
2023/03/30 01:39:56;;;;;;;1.00;1.00;;;;;;;2.57;57.00;100904.13;4767076;30;20301;-74
2023/03/30 01:42:32;;;;;;;1.00;1.00;;;;;;;2.75;57.10;100923.09;4767546;30;20227;-75
2023/03/30 01:45:09;;;;;;;1.20;1.20;;;;;;;2.71;57.25;100926.31;4767595;30;20247;-75
2023/03/30 01:47:40;;;;;;;0.97;0.97;;;;;;;2.63;57.39;100927.50;4767197;30;20237;-75
2023/03/30 01:50:11;;;;;;;0.90;0.90;;;;;;;2.64;57.46;100929.28;4767686;30;20224;-73
2023/03/30 01:52:42;;;;;;;1.13;1.13;;;;;;;2.57;58.39;100924.59;4766878;30;20624;-74
2023/03/30 01:55:15;;;;;;;1.10;1.10;;;;;;;2.56;58.67;100931.38;4767577;30;20214;-74
2023/03/30 01:57:50;;;;;;;1.00;1.00;;;;;;;2.58;59.80;100929.78;4766970;30;20227;-74
2023/03/30 02:00:21;;;;;;;0.80;0.80;;;;;;;2.54;61.19;100934.63;4722812;30;20228;-74
2023/03/30 02:02:53;;;;;;;1.10;1.10;;;;;;;2.52;60.46;100941.34;4729314;30;20233;-75
2023/03/30 02:05:22;;;;;;;1.20;1.20;;;;;;;2.36;59.02;100922.50;4785350;30;20216;-74
2023/03/30 02:07:53;;;;;;;1.00;1.00;;;;;;;2.41;59.59;100933.00;4840081;29;20245;-74
2023/03/30 02:10:27;;;;;;;0.90;0.90;;;;;;;2.39;61.18;100930.34;4908416;29;20203;-75
2023/03/30 02:12:56;;;;;;;0.80;0.80;;;;;;;2.35;62.04;100936.09;4968467;28;20299;-74
2023/03/30 02:15:25;;;;;;;1.10;1.10;;;;;;;2.36;63.11;100934.38;5029876;28;20233;-73
2023/03/30 02:17:52;;;;;;;2.87;2.70;;;;;;;2.41;63.29;100933.91;5075249;28;20222;-74
2023/03/30 02:20:18;;;;;;;1.77;1.77;;;;;;;2.33;63.10;100929.97;5092157;28;20209;-73
2023/03/30 02:22:46;;;;;;;1.33;1.33;;;;;;;2.20;64.05;100909.56;5056446;28;20197;-74
2023/03/30 02:25:14;;;;;;;1.20;1.20;;;;;;;2.24;64.05;100939.66;5092308;28;20569;-74
2023/03/30 02:27:42;;;;;;;1.00;1.00;;;;;;;2.28;63.44;100912.59;5091976;28;20693;-74
2023/03/30 02:30:10;;;;;;;1.20;1.20;;;;;;;2.22;62.82;100915.66;5092145;28;20653;-75
2023/03/30 02:32:42;;;;;;;1.23;1.23;;;;;;;2.38;63.38;100943.94;5091512;28;20202;-74
2023/03/30 02:35:29;;;;;;;1.30;1.30;;;;;;;2.40;63.49;100942.34;5052504;28;20203;-75
2023/03/30 02:38:35;;;;;;;1.10;1.10;;;;;;;2.33;64.23;100947.00;4994827;28;20206;-74
2023/03/30 02:41:13;;;;;;;1.10;1.10;;;;;;;2.27;65.24;100956.88;5009703;28;20671;-74
2023/03/30 02:43:52;;;;;;;1.00;1.00;;;;;;;2.05;65.83;100930.75;5009582;28;20201;-75
2023/03/30 02:46:30;;;;;;;1.00;1.00;;;;;;;2.14;65.79;100947.53;4952232;28;20224;-75
2023/03/30 02:49:08;;;;;;;1.20;1.20;;;;;;;2.09;66.58;100955.72;5008513;28;20224;-74
2023/03/30 02:51:42;;;;;;;1.10;1.10;;;;;;;2.23;65.94;100955.78;5009428;28;20196;-74
2023/03/30 02:54:19;;;;;;;1.23;1.23;;;;;;;2.35;65.60;100948.00;4960419;28;20627;-74
2023/03/30 02:56:53;;;;;;;1.20;1.20;;;;;;;2.29;66.47;100952.72;5009059;28;20288;-74
2023/03/30 02:59:27;;;;;;;1.03;1.03;;;;;;;2.17;67.17;100955.44;5009484;28;20229;-74
2023/03/30 03:01:58;;;;;;;0.83;0.83;;;;;;;2.08;67.75;100966.72;4994622;28;20200;-74
2023/03/30 03:04:28;;;;;;;1.10;1.10;;;;;;;1.92;70.03;100944.44;5007904;28;20201;-75
2023/03/30 03:06:55;;;;;;;1.10;1.10;;;;;;;2.13;69.41;100973.03;5009040;28;20228;-74
2023/03/30 03:09:24;;;;;;;1.33;1.33;;;;;;;2.20;68.46;100960.72;5009305;28;20217;-75
2023/03/30 03:11:51;;;;;;;1.07;1.07;;;;;;;2.20;69.25;100958.16;4976189;28;20220;-74
2023/03/30 03:14:19;;;;;;;1.10;1.10;;;;;;;2.19;69.95;100971.75;5021938;28;20240;-75
2023/03/30 03:16:47;;;;;;;0.90;0.90;;;;;;;2.09;70.57;100953.16;5093403;28;20208;-75
2023/03/30 03:19:14;;;;;;;0.80;0.80;;;;;;;1.68;70.39;100890.09;5093423;28;20190;-74
2023/03/30 03:21:41;;;;;;;0.93;0.93;;;;;;;2.14;69.04;100978.22;5095296;28;20202;-74
2023/03/30 03:24:08;;;;;;;1.17;1.17;;;;;;;2.06;70.61;100974.34;5094776;28;20642;-74
2023/03/30 03:26:35;;;;;;;0.83;0.83;;;;;;;1.91;71.81;100952.91;5093070;28;20200;-74
2023/03/30 03:29:02;;;;;;;0.90;0.90;;;;;;;2.04;72.65;100975.00;5090606;28;20230;-74
2023/03/30 03:31:29;;;;;;;0.90;0.90;;;;;;;1.91;73.12;100958.00;5083753;28;20210;-75
2023/03/30 03:33:57;;;;;;;0.90;0.90;;;;;;;1.99;73.44;100967.06;5090084;28;20259;-74
2023/03/30 03:36:24;;;;;;;0.80;0.80;;;;;;;1.89;74.38;100962.16;5091444;28;20201;-74
2023/03/30 03:38:51;;;;;;;0.90;0.90;;;;;;;1.89;75.27;100975.81;5090835;28;20217;-76
2023/03/30 03:41:17;;;;;;;0.90;0.90;;;;;;;1.88;75.31;100978.28;5091364;28;20255;-75
2023/03/30 03:43:44;;;;;;;2.43;2.27;;;;;;;1.86;75.28;100984.94;5091252;28;20685;-75
2023/03/30 03:46:11;;;;;;;1.20;1.20;;;;;;;1.84;76.41;100986.53;5091178;28;20262;-74
2023/03/30 03:48:40;;;;;;;1.00;1.00;;;;;;;1.87;76.42;100986.72;5090347;28;20234;-75
2023/03/30 03:51:10;;;;;;;1.00;1.00;;;;;;;1.80;77.81;100974.34;5091090;28;20692;-75
2023/03/30 03:53:37;;;;;;;1.10;1.10;;;;;;;1.83;77.55;100995.88;5090711;28;20210;-75
2023/03/30 03:56:03;;;;;;;0.90;0.90;;;;;;;1.79;76.76;100998.13;5090764;28;20207;-75
2023/03/30 03:58:30;;;;;;;1.10;1.10;;;;;;;1.74;77.79;101005.53;5090869;28;20668;-76
2023/03/30 04:01:01;;;;;;;0.90;0.90;;;;;;;1.84;78.13;100996.78;5090704;28;20225;-74
2023/03/30 04:03:28;;;;;;;0.90;0.90;;;;;;;1.65;78.92;100987.03;5091386;28;20202;-76
2023/03/30 04:05:57;;;;;;;1.10;1.10;;;;;;;1.66;78.81;101006.69;5094341;28;20190;-75
2023/03/30 04:08:27;;;;;;;1.33;1.33;;;;;;;1.71;79.33;101007.00;5094553;28;20589;-75
2023/03/30 04:10:54;;;;;;;1.20;1.20;;;;;;;1.62;79.59;101004.72;5094722;28;20209;-76
2023/03/30 04:13:20;;;;;;;1.10;1.10;;;;;;;1.53;79.98;100998.13;5088778;28;20210;-74
2023/03/30 04:15:47;;;;;;;1.10;1.10;;;;;;;1.60;80.61;101003.75;5091805;28;20205;-74
2023/03/30 04:18:14;;;;;;;0.97;0.97;;;;;;;1.72;81.10;101016.41;5090201;28;20194;-75
2023/03/30 04:20:41;;;;;;;0.83;0.83;;;;;;;1.77;81.35;101025.28;5085315;28;20198;-75
2023/03/30 04:23:08;;;;;;;1.10;1.10;;;;;;;1.84;80.93;101027.44;5085611;28;20199;-75
2023/03/30 04:25:38;;;;;;;0.90;0.90;;;;;;;1.98;80.94;101022.44;5094731;28;20213;-75
2023/03/30 04:28:05;;;;;;;1.00;1.00;;;;;;;1.83;79.66;101006.09;5094384;28;20230;-76
2023/03/30 04:30:32;;;;;;;1.00;1.00;;;;;;;2.07;79.18;101034.91;5094450;28;20214;-75
2023/03/30 04:33:08;;;;;;;1.07;1.07;;;;;;;2.02;78.80;101028.63;5094284;28;20216;-76
2023/03/30 04:35:34;;;;;;;1.30;1.30;;;;;;;2.05;78.66;101040.72;5094295;28;20271;-75
2023/03/30 04:38:02;;;;;;;1.70;1.70;;;;;;;2.03;79.22;101032.97;5092483;28;20198;-75
2023/03/30 04:40:28;;;;;;;1.20;1.20;;;;;;;2.11;79.25;101039.44;5081591;28;20217;-76
2023/03/30 04:43:00;;;;;;;1.20;1.20;;;;;;;2.28;79.56;101045.63;5092837;28;20197;-76
2023/03/30 04:45:27;;;;;;;0.90;0.90;;;;;;;2.82;80.86;101045.59;5042040;28;20194;-74
2023/03/30 04:47:54;;;;;;;0.87;0.87;;;;;;;3.97;77.30;101031.91;5093777;28;20708;-75
2023/03/30 04:50:21;;;;;;;1.10;1.10;;;;;;;5.36;67.81;101043.72;5093113;28;20746;-75
2023/03/30 04:52:48;;;;;;;0.80;0.80;;;;;;;6.63;60.92;101043.97;5041948;28;20194;-75
2023/03/30 04:55:15;;;;;;;0.90;0.90;;;;;;;7.13;56.22;101059.13;5041184;28;20197;-75
2023/03/30 04:57:42;;;;;;;0.63;0.63;;;;;;;7.29;56.37;101061.56;5093653;28;20194;-75
2023/03/30 05:00:12;;;;;;;0.73;0.73;;;;;;;6.99;55.34;101032.75;5093896;28;20332;-78
2023/03/30 05:02:39;;;;;;;1.50;1.50;;;;;;;6.93;56.13;101065.97;5093842;28;20669;-76
2023/03/30 05:05:06;;;;;;;1.08;1.08;;;;;;;6.66;56.86;101047.56;5084489;28;20197;-76
2023/03/30 05:07:33;;;;;;;0.70;0.70;;;;;;;7.30;66.39;101074.53;5078428;28;20197;-75
2023/03/30 05:10:00;;;;;;;0.70;0.70;;;;;;;7.12;58.58;101055.66;5080799;28;20218;-76
2023/03/30 05:12:27;;;;;;;0.80;0.80;;;;;;;6.29;58.08;100980.59;5093377;28;20202;-75
2023/03/30 05:14:53;;;;;;;0.80;0.80;;;;;;;6.71;57.49;101048.66;5093231;28;20206;-75
2023/03/30 05:17:22;;;;;;;0.90;0.90;;;;;;;6.55;58.53;101055.59;5093895;28;20209;-77
2023/03/30 05:19:48;;;;;;;0.80;0.80;;;;;;;6.41;58.94;101068.75;5093417;28;20201;-75
2023/03/30 05:22:15;;;;;;;1.10;1.10;;;;;;;6.32;66.21;101080.28;5092451;28;20290;-71
2023/03/30 05:24:42;;;;;;;1.40;1.30;;;;;;;5.97;61.43;101052.84;5093440;28;20209;-74
2023/03/30 05:27:09;;;;;;;1.00;1.00;;;;;;;5.96;79.37;101062.25;5093093;28;20202;-76
2023/03/30 05:29:36;;;;;;;5.20;2.00;;;;;;;5.92;92.54;101064.63;5093540;28;20253;-75
2023/03/30 05:32:03;;;;;;;4.40;1.77;;;;;;;5.72;92.68;101044.69;5093148;28;20202;-76
2023/03/30 05:34:31;;;;;;;3.40;1.63;;;;;;;5.60;80.54;101056.94;5093427;28;20197;-76
2023/03/30 05:36:57;;;;;;;3.60;1.67;;;;;;;5.38;79.68;101063.59;5093273;28;20681;-76
2023/03/30 05:39:24;;;;;;;3.83;1.67;;;;;;;5.38;80.90;101067.84;5076660;28;20194;-75
2023/03/30 05:41:51;;;;;;;3.17;1.60;;;;;;;5.25;84.17;101071.44;5092957;28;20217;-75
2023/03/30 05:44:18;;;;;;;2.93;1.47;;;;;;;5.25;82.47;101073.13;5087899;28;20198;-75
2023/03/30 05:46:45;;;;;;;3.83;1.60;;;;;;;5.25;81.11;101081.72;5093096;28;20638;-74
2023/03/30 05:49:12;;;;;;;4.10;1.80;;;;;;;5.27;82.30;101079.25;5093175;28;20226;-74
2023/03/30 05:51:40;;;;;;;5.17;2.47;;;;;;;5.28;86.72;101081.03;5092819;28;20201;-75
2023/03/30 05:54:07;;;;;;;4.33;1.73;;;;;;;5.03;88.85;101048.00;5093189;28;20221;-75
2023/03/30 05:56:33;;;;;;;4.20;1.90;;;;;;;5.29;87.38;101093.94;5093302;28;20209;-75
2023/03/30 05:59:00;;;;;;;2.47;1.50;;;;;;;5.21;88.55;101090.09;5092496;28;20230;-76
2023/03/30 06:01:27;;;;;;;4.07;2.20;;;;;;;5.28;89.60;101099.88;5082855;28;20205;-76
2023/03/30 06:03:54;;;;;;;2.27;1.57;;;;;;;5.33;95.58;101095.88;5092524;28;20207;-74
2023/03/30 06:06:21;;;;;;;3.93;1.83;;;;;;;5.38;93.01;101097.00;5092853;28;20680;-75
2023/03/30 06:08:50;;;;;;;2.47;1.70;;;;;;;5.17;77.47;101085.63;5091013;28;20777;-75
2023/03/30 06:11:16;;;;;;;1.50;1.40;;;;;;;5.34;74.19;101100.22;5086464;28;20653;-74
2023/03/30 06:13:43;;;;;;;1.67;1.57;;;;;;;5.25;73.65;101104.88;5078504;28;20209;-74
2023/03/30 06:16:10;;;;;;;2.23;1.50;;;;;;;5.24;73.61;101085.13;5092613;28;20214;-75
2023/03/30 06:18:37;;;;;;;2.57;1.70;;;;;;;5.25;73.61;101096.28;5056944;28;20294;-74
2023/03/30 06:21:05;;;;;;;3.43;1.73;;;;;;;5.32;72.77;101099.25;5092708;28;20205;-75
2023/03/30 06:23:32;;;;;;;1.77;1.27;;;;;;;5.20;71.75;101083.19;5025004;28;20577;-76
2023/03/30 06:26:01;;;;;;;2.40;1.47;;;;;;;5.42;73.64;101108.34;5089910;28;20230;-75
2023/03/30 06:28:28;;;;;;;1.80;1.30;;;;;;;5.42;73.45;101106.63;5090751;28;20230;-75
2023/03/30 06:30:55;;;;;;;3.00;1.87;;;;;;;5.31;76.23;101040.03;5091184;28;20259;-76
2023/03/30 06:33:24;;;;;;;2.20;1.40;;;;;;;5.39;71.97;101054.16;5091345;28;20616;-75
2023/03/30 06:35:53;;;;;;;3.67;1.70;;;;;;;5.45;70.29;101101.66;5084686;28;20205;-76
2023/03/30 06:38:20;;;;;;;2.70;1.60;;;;;;;5.60;70.97;101116.13;5073456;28;20285;-77
2023/03/30 06:40:47;;;;;;;3.13;1.60;;;;;;;5.59;69.92;101120.38;5069044;28;20646;-75
2023/03/30 06:43:18;;;;;;;14.60;4.60;;;;;;;5.56;69.69;101114.19;5081200;28;20194;-75
2023/03/30 06:45:50;;;;;;;3.57;1.70;;;;;;;5.21;67.88;101041.22;5087113;28;20195;-74
2023/03/30 06:48:18;;;;;;;2.30;1.50;;;;;;;5.66;65.09;101126.72;5090364;28;20210;-76
2023/03/30 06:50:45;;;;;;;2.27;1.50;;;;;;;5.39;65.67;101085.91;5082428;28;20199;-76
2023/03/30 06:53:13;;;;;;;2.37;1.73;;;;;;;5.82;64.68;101129.25;5051331;28;20678;-75
2023/03/30 06:55:39;;;;;;;2.03;1.57;;;;;;;5.88;62.62;101117.63;5085407;28;20244;-76
2023/03/30 06:58:06;;;;;;;1.93;1.47;;;;;;;5.97;63.01;101119.75;5083659;28;20198;-74
2023/03/30 07:00:35;;;;;;;1.63;1.47;;;;;;;6.14;62.92;101113.75;5091174;28;20748;-75
2023/03/30 07:03:02;;;;;;;1.90;1.40;;;;;;;6.35;60.92;101130.25;5088192;28;20595;-77
2023/03/30 07:05:30;;;;;;;1.53;1.43;;;;;;;6.48;61.04;101132.63;5086654;28;20204;-76
2023/03/30 07:07:57;;;;;;;2.23;2.10;;;;;;;6.45;60.70;101126.44;5091120;28;20581;-77
2023/03/30 07:10:23;;;;;;;2.93;2.60;;;;;;;6.58;60.61;101135.63;5090171;28;20225;-74
2023/03/30 07:12:50;;;;;;;1.93;1.43;;;;;;;6.61;60.24;101143.50;5043561;28;20210;-76
2023/03/30 07:15:17;;;;;;;2.23;1.67;;;;;;;6.70;58.92;101143.94;5088733;28;20206;-75
2023/03/30 07:17:45;;;;;;;1.97;1.43;;;;;;;6.74;59.81;101140.69;5091027;28;20202;-75
2023/03/30 07:20:14;;;;;;;15.70;3.53;;;;;;;6.27;58.20;101067.19;5091030;28;20206;-75
2023/03/30 07:22:41;;;;;;;1.77;1.40;;;;;;;6.59;58.06;101121.94;5084026;28;20210;-75
2023/03/30 07:25:08;;;;;;;2.20;1.50;;;;;;;6.66;58.41;101142.03;5085260;28;20234;-75
2023/03/30 07:27:36;;;;;;;1.67;1.33;;;;;;;6.92;56.75;101144.16;5087615;28;20593;-77
2023/03/30 07:30:03;;;;;;;2.13;1.43;;;;;;;6.95;55.69;101133.97;5096627;28;20638;-75
2023/03/30 07:32:30;;;;;;;1.20;1.10;;;;;;;7.15;54.62;101125.44;5094780;28;20206;-75
2023/03/30 07:34:58;;;;;;;1.90;1.40;;;;;;;7.29;52.55;101105.41;5095282;28;20587;-76
2023/03/30 07:37:25;;;;;;;2.13;1.50;;;;;;;7.14;52.51;101109.88;5094295;28;20194;-76
2023/03/30 07:39:52;;;;;;;3.23;1.83;;;;;;;7.08;52.09;101107.91;5039062;28;20221;-77
2023/03/30 07:42:18;;;;;;;2.90;2.40;;;;;;;6.89;51.05;101044.31;5090655;28;20202;-76
2023/03/30 07:44:45;;;;;;;1.40;1.30;;;;;;;7.44;50.40;101122.47;5054995;28;20202;-76
2023/03/30 07:47:12;;;;;;;1.63;1.47;;;;;;;7.62;49.26;101116.34;5090326;28;20206;-77
2023/03/30 07:49:39;;;;;;;3.63;2.33;;;;;;;7.52;50.38;101104.75;5090683;28;20222;-77
2023/03/30 07:52:07;;;;;;;1.53;1.43;;;;;;;7.84;48.69;101121.59;5090613;28;20225;-77
2023/03/30 07:54:34;;;;;;;3.93;2.20;;;;;;;7.81;47.47;101119.75;5037961;28;20214;-77
2023/03/30 07:57:01;;;;;;;1.47;1.30;;;;;;;8.01;45.70;101119.72;5090460;28;20205;-78
2023/03/30 07:59:28;;;;;;;1.10;1.10;;;;;;;8.15;43.80;101122.06;5055281;28;20701;-76
2023/03/30 08:01:55;;;;;;;1.10;1.10;;;;;;;8.17;41.88;101107.50;5090511;28;20660;-76
2023/03/30 08:04:23;;;;;;;1.30;1.30;;;;;;;8.18;38.67;101093.75;5090566;28;20198;-76
2023/03/30 08:06:51;;;;;;;1.20;1.20;;;;;;;8.26;40.00;101105.31;5088787;28;20199;-75
2023/03/30 08:09:19;;;;;;;3.10;2.90;;;;;;;8.46;40.67;101119.03;5090767;28;20234;-76
2023/03/30 08:11:46;;;;;;;1.20;1.20;;;;;;;8.40;40.37;101114.53;5088249;28;20225;-77
2023/03/30 08:14:13;;;;;;;1.10;1.10;;;;;;;7.85;36.89;101053.63;5080083;28;20206;-77
2023/03/30 08:16:40;;;;;;;1.10;1.10;;;;;;;8.30;37.36;101119.25;5091370;28;20202;-76
2023/03/30 08:19:07;;;;;;;1.03;1.03;;;;;;;8.61;46.18;101108.44;5035975;28;20203;-76
2023/03/30 08:21:33;;;;;;;3.03;2.33;;;;;;;8.23;40.49;101040.59;5084062;28;20202;-74
2023/03/30 08:24:00;;;;;;;1.25;1.25;;;;;;;8.72;40.91;101109.72;5019249;28;20203;-75
2023/03/30 08:26:29;;;;;;;1.20;1.20;;;;;;;8.84;41.20;101094.69;5035382;28;20294;-75
2023/03/30 08:28:56;;;;;;;2.13;2.03;;;;;;;8.89;41.50;101101.78;5086777;28;20696;-75
2023/03/30 08:31:23;;;;;;;1.20;1.20;;;;;;;8.91;42.22;101107.03;5090522;28;20255;-75
2023/03/30 08:33:50;;;;;;;1.10;1.10;;;;;;;8.89;39.60;101100.91;5084289;28;20206;-75
2023/03/30 08:36:19;;;;;;;1.30;1.30;;;;;;;8.83;40.24;101090.34;5090029;28;20209;-74
2023/03/30 08:38:46;;;;;;;1.70;1.70;;;;;;;8.84;41.08;101094.69;5088066;28;20210;-76
2023/03/30 08:41:57;;;;;;;1.30;1.30;;;;;;;8.94;40.13;101094.22;5087940;28;20206;-75
2023/03/30 08:44:33;;;;;;;1.00;1.00;;;;;;;9.00;40.96;101091.84;5007009;28;20295;-76
2023/03/30 08:47:02;;;;;;;1.10;1.10;;;;;;;8.92;41.69;101088.97;5008498;28;20216;-76
2023/03/30 08:49:33;;;;;;;1.10;1.10;;;;;;;9.00;40.60;101078.91;5009039;28;20229;-75
2023/03/30 08:52:03;;;;;;;1.10;1.10;;;;;;;9.20;40.20;101069.31;5011917;28;20226;-75
2023/03/30 08:54:32;;;;;;;1.10;1.10;;;;;;;9.16;39.77;101070.91;5011792;28;20201;-76
2023/03/30 08:57:08;;;;;;;1.17;1.17;;;;;;;9.16;39.47;101073.50;5011776;28;20688;-75
2023/03/30 08:59:43;;;;;;;1.50;1.50;;;;;;;9.13;39.78;101067.34;5011424;28;20232;-76
2023/03/30 09:02:17;;;;;;;1.10;1.10;;;;;;;9.13;39.31;101057.84;5011472;28;20267;-74
2023/03/30 09:04:56;;;;;;;1.15;1.15;;;;;;;9.23;39.12;101054.78;5011848;28;20378;-74
2023/03/30 09:07:26;;;;;;;1.27;1.27;;;;;;;9.34;39.26;101037.94;5011707;28;20243;-76
2023/03/30 09:09:53;;;;;;;1.30;1.30;;;;;;;9.40;38.79;101047.59;5011583;28;20225;-73
2023/03/30 09:12:30;;;;;;;1.10;1.10;;;;;;;9.58;39.30;101040.47;4963256;28;20212;-74
2023/03/30 09:15:02;;;;;;;1.20;1.20;;;;;;;9.68;38.65;101049.44;5011382;28;20204;-79
2023/03/30 09:17:33;;;;;;;1.15;1.15;;;;;;;9.37;37.35;101058.75;5011530;28;20244;-76
2023/03/30 09:20:06;;;;;;;1.02;1.02;;;;;;;9.28;38.23;101027.34;5017663;28;20216;-74
2023/03/30 09:22:38;;;;;;;1.10;1.10;;;;;;;9.61;37.44;101038.00;5093398;28;20267;-77
2023/03/30 09:25:14;;;;;;;1.02;1.02;;;;;;;9.62;37.17;101020.75;5093562;28;20216;-76
2023/03/30 09:27:50;;;;;;;1.10;1.10;;;;;;;9.44;37.20;100967.53;5093358;28;20204;-78
2023/03/30 09:30:20;;;;;;;4.82;4.43;;;;;;;9.92;37.42;101032.09;5093394;28;20222;-78
2023/03/30 09:32:58;;;;;;;0.90;0.90;;;;;;;9.80;37.72;101032.59;5093665;28;20210;-75
2023/03/30 09:35:35;;;;;;;1.10;1.10;;;;;;;9.79;37.76;100991.09;5093280;28;20647;-75
2023/03/30 09:38:02;;;;;;;1.08;1.08;;;;;;;10.03;37.51;101022.97;5093215;28;20672;-76
2023/03/30 09:41:05;;;;;;;1.10;1.10;;;;;;;10.23;37.24;101024.53;5093113;28;20200;-75
2023/03/30 09:43:34;;;;;;;1.48;1.48;;;;;;;10.22;37.56;101029.66;5010971;28;20240;-75
2023/03/30 09:46:06;;;;;;;1.13;1.13;;;;;;;9.92;36.32;100990.66;5010903;28;20201;-74
2023/03/30 09:48:39;;;;;;;1.85;1.75;;;;;;;10.20;36.17;101014.03;5011318;28;20235;-77
2023/03/30 09:51:15;;;;;;;1.52;1.42;;;;;;;10.20;36.34;101011.47;5010686;28;20278;-75
2023/03/30 09:53:43;;;;;;;1.20;1.20;;;;;;;10.23;35.96;100995.16;5011084;28;20278;-78
2023/03/30 09:56:17;;;;;;;1.30;1.20;;;;;;;10.20;36.07;100998.50;5010981;28;20237;-76
2023/03/30 09:58:44;;;;;;;1.20;1.20;;;;;;;10.25;36.45;100991.75;5010963;28;20739;-78
2023/03/30 10:01:20;;;;;;;1.40;1.30;;;;;;;10.23;36.33;100998.63;5010039;28;20203;-78
2023/03/30 10:04:08;;;;;;;1.60;1.50;;;;;;;10.23;35.88;100996.03;5011043;28;20227;-75
2023/03/30 10:06:39;;;;;;;1.20;1.20;;;;;;;10.28;36.03;100989.25;5010540;28;20208;-74
2023/03/30 10:09:11;;;;;;;1.30;1.30;;;;;;;10.24;36.24;100986.50;5010421;28;20197;-75
2023/03/30 10:11:41;;;;;;;1.98;1.88;;;;;;;10.36;35.67;100980.00;5010711;28;20647;-78
2023/03/30 10:14:27;;;;;;;1.15;1.15;;;;;;;10.29;36.18;100939.19;5010629;28;20197;-76
2023/03/30 10:16:57;;;;;;;2.53;2.33;;;;;;;10.50;34.68;100977.81;5010588;28;20214;-78
2023/03/30 10:19:24;;;;;;;1.13;1.13;;;;;;;10.54;34.13;100965.81;5012926;28;20315;-76
2023/03/30 10:21:56;;;;;;;1.13;1.13;;;;;;;10.34;34.09;100927.25;5052282;28;20207;-74
2023/03/30 10:24:24;;;;;;;1.27;1.27;;;;;;;10.56;33.54;100959.00;5052175;28;20199;-75
2023/03/30 10:26:54;;;;;;;1.00;1.00;;;;;;;10.78;33.46;100957.03;5052068;28;20630;-76
2023/03/30 10:29:22;;;;;;;1.05;1.05;;;;;;;9.77;33.25;100764.88;5052170;28;20268;-76
2023/03/30 10:31:56;;;;;;;1.20;1.20;;;;;;;10.96;32.70;100967.03;5052196;28;20214;-77
2023/03/30 10:34:35;;;;;;;1.20;1.20;;;;;;;10.95;32.31;100936.75;5052001;28;20203;-75
2023/03/30 10:37:06;;;;;;;1.08;1.08;;;;;;;11.11;32.45;100957.09;5051953;28;20207;-75
2023/03/30 10:39:34;;;;;;;1.40;1.30;;;;;;;11.12;32.59;100955.38;5052714;28;20199;-78
2023/03/30 10:42:03;;;;;;;1.20;1.20;;;;;;;11.00;32.11;100958.50;5052683;28;20206;-78
2023/03/30 10:44:32;;;;;;;1.58;1.48;;;;;;;11.10;31.57;100944.94;5052573;28;20228;-79
2023/03/30 10:47:15;;;;;;;1.80;1.58;;;;;;;11.24;32.39;100946.16;5033660;28;20210;-79
2023/03/30 10:49:54;;;;;;;1.63;1.52;;;;;;;11.34;31.59;100929.97;5052254;28;20230;-79
2023/03/30 10:52:28;;;;;;;1.65;1.48;;;;;;;11.42;31.07;100919.78;5052129;28;20203;-76
2023/03/30 10:55:01;;;;;;;1.40;1.30;;;;;;;11.48;30.98;100921.69;5051536;28;20199;-73
2023/03/30 10:57:37;;;;;;;2.20;1.60;;;;;;;11.52;30.01;100919.22;5052568;28;20202;-76
2023/03/30 11:00:31;;;;;;;1.55;1.40;;;;;;;11.54;30.60;100916.63;5084445;28;20343;-74
2023/03/30 11:03:06;;;;;;;1.33;1.23;;;;;;;11.54;29.13;100908.84;5091735;28;20197;-76
2023/03/30 11:05:37;;;;;;;1.45;1.35;;;;;;;11.65;29.67;100894.38;5091817;28;20206;-76
2023/03/30 11:08:07;;;;;;;1.40;1.30;;;;;;;11.69;28.79;100889.31;5091786;28;20201;-76
2023/03/30 11:10:37;;;;;;;2.92;2.67;;;;;;;11.83;29.65;100887.94;5091497;28;20222;-78
2023/03/30 11:13:07;;;;;;;1.50;1.40;;;;;;;11.97;31.89;100885.66;5091208;28;20633;-73
2023/03/30 11:15:40;;;;;;;1.40;1.30;;;;;;;11.99;30.30;100881.34;5091430;28;20661;-74
2023/03/30 11:18:14;;;;;;;1.52;1.33;;;;;;;11.85;29.06;100874.97;5091469;28;20646;-76
2023/03/30 11:20:48;;;;;;;1.92;1.73;;;;;;;11.81;29.73;100871.41;5091770;28;20255;-76
2023/03/30 11:23:21;;;;;;;1.58;1.30;;;;;;;11.73;28.97;100873.00;5091930;28;20634;-77
2023/03/30 11:25:57;;;;;;;1.40;1.30;;;;;;;11.97;29.66;100862.25;5091904;28;20205;-77
2023/03/30 11:28:40;;;;;;;2.75;2.13;;;;;;;11.99;27.92;100859.66;5091639;28;20194;-76
2023/03/30 11:34:38;;;;;;;1.95;1.50;;;;;;;12.13;27.34;100851.31;5052067;28;20244;-76
2023/03/30 11:37:17;;;;;;;1.83;1.70;;;;;;;12.21;27.48;100847.16;5053819;28;20291;-76
2023/03/30 11:39:52;;;;;;;1.40;1.30;;;;;;;12.03;26.59;100836.38;5022566;28;20213;-77
2023/03/30 11:42:24;;;;;;;1.42;1.33;;;;;;;12.17;26.47;100840.16;5005716;28;20202;-77
2023/03/30 11:44:51;;;;;;;1.35;1.25;;;;;;;12.26;26.07;100834.28;5050556;28;20599;-77
2023/03/30 11:47:45;;;;;;;1.42;1.33;;;;;;;12.37;27.47;100832.75;5049822;28;20230;-77
2023/03/30 11:50:26;;;;;;;1.13;1.10;;;;;;;12.37;26.53;100836.25;5000257;28;20751;-77
2023/03/30 11:53:07;;;;;;;1.40;1.30;;;;;;;12.35;27.50;100835.31;5049570;28;20207;-77